.
WxDataArchive / Data Records for 2008-07-23
2008-07-22 July 2008 2008-07-24

Data Records for Wednesday, 23 July 2008

Time	Temp	Chill	HIndex	Humid	Dewpt	 Wind 	HiWind	WindDir	Rain 	Barom 
-----	----	-----	------	-----	-----	------	------	-------	-----	----- 
00:00	64.3	64.3	64.3	85	59.7	0	0	---	0.00	29.935 
00:05	64.2	64.2	64.2	85	59.6	0	0	---	0.00	29.934 
00:10	64.2	64.2	64.2	86	59.9	0	1	292	0.00	29.935 
00:15	64.0	64.0	64.0	86	59.7	0	0	---	0.00	29.934 
00:20	64.0	64.0	64.0	86	59.7	0	0	---	0.00	29.935 
00:25	63.9	63.9	63.9	86	59.6	0	0	---	0.00	29.934 
00:30	63.9	63.9	63.9	87	59.9	0	0	---	0.00	29.933 
00:35	63.7	63.7	63.7	87	59.8	0	1	292	0.00	29.934 
00:40	63.7	63.7	63.7	87	59.8	0	1	292	0.00	29.933 
00:45	63.5	63.5	63.5	87	59.6	0	1	292	0.00	29.933 
00:50	63.4	63.4	63.4	88	59.8	0	0	---	0.00	29.933 
00:55	63.4	63.4	63.4	88	59.8	0	1	292	0.00	29.932 
01:00	63.2	63.2	63.2	88	59.6	0	1	292	0.00	29.931 
01:05	63.2	63.2	63.2	88	59.6	0	1	292	0.00	29.932 
01:10	63.2	63.2	63.2	88	59.6	0	1	292	0.00	29.929 
01:15	63.1	63.1	63.1	89	59.8	0	1	292	0.00	29.924 
01:20	63.1	63.1	63.1	89	59.8	0	1	292	0.00	29.922 
01:25	63.1	63.1	63.1	89	59.8	0	1	292	0.00	29.921 
01:30	62.9	62.9	62.9	89	59.6	0	1	292	0.00	29.921 
01:35	62.9	62.9	62.9	89	59.6	0	1	292	0.00	29.924 
01:40	62.7	62.7	62.7	90	59.7	0	1	292	0.00	29.929 
01:45	62.6	62.6	62.6	90	59.6	0	1	292	0.00	29.929 
01:50	62.4	62.4	62.4	90	59.4	0	1	292	0.00	29.930 
01:55	62.4	62.4	62.4	90	59.4	0	2	292	0.00	29.931 
02:00	62.3	62.3	62.3	90	59.3	0	1	292	0.00	29.930 
02:05	62.3	62.3	62.3	90	59.3	0	1	292	0.00	29.927 
02:10	62.1	62.1	62.1	90	59.1	0	1	292	0.00	29.927 
02:15	62.1	62.1	62.1	90	59.1	0	2	292	0.00	29.930 
02:20	62.1	62.1	62.1	90	59.1	0	1	292	0.00	29.933 
02:25	62.0	62.0	62.0	90	59.0	0	1	292	0.00	29.935 
02:30	62.0	62.0	62.0	90	59.0	0	1	292	0.00	29.935 
02:35	62.0	62.0	62.0	90	59.0	0	1	292	0.00	29.935 
02:40	62.0	62.0	62.0	90	59.0	0	1	292	0.00	29.936 
02:45	61.8	61.8	61.8	90	58.8	0	1	292	0.00	29.936 
02:50	61.8	61.8	61.8	90	58.8	0	1	292	0.00	29.936 
02:55	61.8	61.8	61.8	90	58.8	0	0	---	0.00	29.937 
03:00	61.6	61.6	61.6	90	58.6	0	0	---	0.00	29.937 
03:05	61.6	61.6	61.6	90	58.6	0	0	---	0.00	29.938 
03:10	61.5	61.5	61.5	90	58.5	0	1	292	0.00	29.937 
03:15	61.5	61.5	61.5	90	58.5	0	1	292	0.00	29.938 
03:20	61.5	61.5	61.5	90	58.5	0	1	292	0.00	29.937 
03:25	61.3	61.3	61.3	90	58.3	0	0	---	0.00	29.938 
03:30	61.3	61.3	61.3	90	58.3	0	0	---	0.00	29.938 
03:35	61.3	61.3	61.3	90	58.3	0	1	292	0.00	29.938 
03:40	61.2	61.2	61.2	90	58.2	0	2	292	0.00	29.938 
03:45	61.2	61.2	61.2	90	58.2	0	1	292	0.00	29.939 
03:50	61.2	61.2	61.2	90	58.2	0	1	292	0.00	29.941 
03:55	61.2	61.2	61.2	90	58.2	0	2	292	0.00	29.942 
04:00	61.2	61.2	61.2	89	57.9	0	2	292	0.00	29.942 
04:05	61.2	61.2	61.2	89	57.9	0	2	292	0.00	29.944 
04:10	61.2	61.2	61.2	89	57.9	0	2	292	0.00	29.946 
04:15	61.2	61.2	61.2	89	57.9	0	3	292	0.00	29.948 
04:20	61.2	61.2	61.2	89	57.9	0	2	292	0.00	29.951 
04:25	61.0	61.0	61.0	89	57.7	0	2	292	0.00	29.951 
04:30	61.0	61.0	61.0	89	57.7	0	3	292	0.00	29.952 
04:35	60.9	60.9	60.9	89	57.6	0	1	292	0.00	29.953 
04:40	60.7	60.7	60.7	89	57.4	0	2	292	0.00	29.953 
04:45	60.7	60.7	60.7	89	57.4	0	1	270	0.00	29.954 
04:50	60.7	60.7	60.7	89	57.4	0	1	270	0.00	29.956 
04:55	60.5	60.5	60.5	89	57.2	0	3	315	0.00	29.955 
05:00	60.5	60.5	60.5	89	57.2	0	1	315	0.00	29.957 
05:05	60.4	60.4	60.4	89	57.1	0	1	315	0.00	29.960 
05:10	60.4	60.4	60.4	89	57.1	0	1	315	0.00	29.960 
05:15	60.4	60.4	60.4	89	57.1	0	1	315	0.00	29.962 
05:20	60.2	60.2	60.2	88	56.6	0	1	315	0.00	29.967 
05:25	60.2	60.2	60.2	88	56.6	0	1	315	0.00	29.968 
05:30	60.2	60.2	60.2	88	56.6	0	1	315	0.00	29.968 
05:35	60.4	60.4	60.4	88	56.8	0	1	315	0.00	29.969 
05:40	60.4	60.4	60.4	88	56.8	0	2	315	0.00	29.970 
05:45	60.4	60.4	60.4	87	56.5	0	1	338	0.00	29.971 
05:50	60.4	60.4	60.4	87	56.5	0	1	338	0.00	29.970 
05:55	60.4	60.4	60.4	86	56.2	0	1	338	0.00	29.972 
06:00	60.5	60.5	60.5	86	56.3	0	1	338	0.00	29.970 
06:05	60.7	60.7	60.7	86	56.5	0	1	338	0.00	29.974 
06:10	60.7	60.7	60.7	85	56.2	0	2	338	0.00	29.974 
06:15	60.9	60.9	60.9	85	56.4	0	1	338	0.00	29.976 
06:20	61.0	61.0	61.0	85	56.5	0	1	338	0.00	29.975 
06:25	61.2	61.2	61.2	84	56.3	0	1	338	0.00	29.975 
06:30	61.3	61.3	61.3	84	56.4	0	2	315	0.00	29.974 
06:35	61.6	61.6	61.6	84	56.7	0	1	315	0.00	29.974 
06:40	61.8	61.8	61.8	83	56.6	0	2	315	0.00	29.973 
06:45	62.1	62.1	62.1	83	56.9	0	1	315	0.00	29.974 
06:50	62.3	62.3	62.3	81	56.4	0	2	315	0.00	29.974 
06:55	62.6	62.6	62.6	81	56.7	0	1	315	0.00	29.973 
07:00	63.1	63.1	63.1	80	56.8	0	5	270	0.00	29.977 
07:05	63.2	63.2	63.2	80	56.9	0	3	270	0.00	29.982 
07:10	63.5	63.5	63.5	78	56.5	0	2	270	0.00	29.985 
07:15	63.9	63.9	63.9	78	56.9	0	2	270	0.00	29.984 
07:20	64.2	64.2	64.2	77	56.8	1	3	270	0.00	29.982 
07:25	64.3	64.3	64.3	77	56.9	1	2	270	0.00	29.985 
07:30	64.7	64.7	64.7	76	57.0	0	2	292	0.00	29.983 
07:35	65.2	65.2	65.2	75	57.1	0	3	315	0.00	29.985 
07:40	65.5	65.5	65.5	74	57.0	0	2	315	0.00	29.986 
07:45	66.0	66.0	66.0	74	57.5	0	1	315	0.00	29.987 
07:50	66.3	66.3	66.3	73	57.4	0	2	315	0.00	29.988 
07:55	66.3	66.3	66.3	73	57.4	1	2	292	0.00	29.989 
08:00	66.4	66.4	66.4	73	57.5	1	4	292	0.00	29.991 
08:05	66.9	66.9	66.9	73	58.0	1	4	45	0.00	29.991 
08:10	67.1	67.1	67.1	72	57.8	1	5	270	0.00	29.990 
08:15	67.1	67.1	67.1	71	57.4	1	3	338	0.00	29.990 
08:20	67.1	67.1	67.1	71	57.4	1	5	270	0.00	29.990 
08:25	67.3	67.3	67.3	71	57.6	1	3	292	0.00	29.990 
08:30	67.8	67.8	67.8	72	58.4	1	3	22	0.00	29.996 
08:35	68.3	68.3	68.3	72	58.9	1	3	270	0.00	29.999 
08:40	68.6	68.6	68.6	71	58.8	1	2	292	0.00	29.999 
08:45	68.9	68.9	68.9	70	58.7	1	4	292	0.00	29.999 
08:50	68.9	68.9	68.9	69	58.3	1	3	338	0.00	29.999 
08:55	69.4	69.4	69.4	69	58.8	0	3	0	0.00	29.999 
09:00	69.9	69.9	69.9	68	58.8	0	3	315	0.00	29.996 
09:05	70.6	70.6	70.6	67	59.1	0	2	315	0.00	29.997 
09:10	70.8	70.8	70.8	64	58.0	1	3	292	0.00	29.996 
09:15	70.6	70.6	70.6	65	58.2	1	4	292	0.00	29.998 
09:20	70.6	70.6	70.6	64	57.8	1	3	90	0.00	29.996 
09:25	70.8	70.8	70.8	62	57.1	0	1	90	0.00	29.998 
09:30	70.4	70.4	70.4	63	57.2	0	2	90	0.00	29.999 
09:35	70.6	70.6	70.6	65	58.2	0	2	68	0.00	30.003 
09:40	71.3	71.3	71.3	62	57.6	0	1	68	0.00	30.000 
09:45	71.6	71.6	71.6	60	57.0	1	3	315	0.00	30.000 
09:50	72.5	72.5	72.5	59	57.3	0	2	315	0.00	30.000 
09:55	72.8	72.8	72.8	57	56.7	1	3	315	0.00	29.998 
10:00	72.8	72.8	72.8	58	57.1	0	2	270	0.00	29.999 
10:05	72.5	72.5	72.5	57	56.4	1	3	292	0.00	30.003 
10:10	72.1	72.1	72.1	57	56.0	1	2	315	0.00	30.003 
10:15	72.3	72.3	72.3	57	56.2	1	4	315	0.00	30.003 
10:20	72.5	72.5	72.5	59	57.3	1	2	292	0.00	30.003 
10:25	72.3	72.3	72.3	59	57.2	1	4	315	0.00	30.002 
10:30	72.8	72.8	72.8	62	59.0	1	5	292	0.00	30.003 
10:35	73.2	73.2	73.2	57	57.0	1	3	292	0.00	30.001 
10:40	73.7	73.7	73.7	59	58.5	1	5	292	0.00	29.999 
10:45	73.5	73.5	73.5	58	57.8	1	4	338	0.00	30.001 
10:50	73.9	73.9	73.9	60	59.1	1	4	315	0.00	30.000 
10:55	74.0	74.0	74.0	57	57.8	1	4	338	0.00	30.000 
11:00	74.0	74.0	74.0	57	57.8	0	2	45	0.00	30.000 
11:05	74.0	74.0	74.0	56	57.3	0	2	45	0.00	30.002 
11:10	74.2	74.2	74.2	54	56.5	1	5	90	0.00	30.003 
11:15	74.2	74.2	74.2	53	56.0	1	2	45	0.00	30.003 
11:20	74.4	74.4	74.4	55	57.2	1	6	292	0.00	30.002 
11:25	74.7	74.7	74.7	53	56.4	1	5	292	0.00	30.003 
11:30	74.4	74.4	74.4	51	55.1	2	4	315	0.00	30.004 
11:35	74.2	74.2	74.2	55	57.0	1	3	315	0.00	30.004 
11:40	74.9	74.9	74.9	56	58.1	1	4	0	0.00	30.003 
11:45	75.4	75.4	77.8	51	56.0	1	3	315	0.00	30.004 
11:50	75.8	75.8	78.0	52	56.9	1	6	270	0.00	30.003 
11:55	76.1	76.1	78.1	55	58.7	1	4	45	0.00	30.001 
12:00	76.5	76.5	78.4	52	57.5	1	4	68	0.00	30.002 
12:05	76.3	76.3	78.2	50	56.3	1	4	338	0.00	30.000 
12:10	76.8	76.8	78.5	51	57.3	1	3	315	0.00	29.997 
12:15	77.4	77.4	78.8	50	57.3	0	2	0	0.00	29.997 
12:20	77.4	77.4	78.8	48	56.1	1	4	315	0.00	29.998 
12:25	77.4	77.4	78.8	49	56.7	1	3	292	0.00	29.996 
12:30	77.4	77.4	78.8	48	56.1	1	3	315	0.00	29.992 
12:35	77.7	77.7	79.0	49	57.0	1	4	270	0.00	29.995 
12:40	77.9	77.9	79.0	47	56.0	1	5	315	0.00	29.994 
12:45	78.1	78.1	79.0	45	55.0	2	5	292	0.00	29.994 
12:50	77.9	77.9	78.8	43	53.6	1	5	315	0.00	29.992 
12:55	78.3	78.3	79.0	42	53.3	1	3	338	0.00	29.990 
13:00	78.6	78.6	79.2	43	54.2	1	3	292	0.00	29.989 
13:05	78.5	78.5	79.2	44	54.7	2	5	292	0.00	29.990 
13:10	78.6	78.6	79.3	44	54.8	1	4	45	0.00	29.993 
13:15	78.3	78.3	79.0	42	53.3	0	1	315	0.00	29.991 
13:20	78.5	78.5	79.2	44	54.7	1	9	315	0.00	29.989 
13:25	78.5	78.5	79.2	44	54.7	1	9	45	0.00	29.993 
13:30	78.1	78.1	78.9	42	53.1	1	3	0	0.00	29.994 
13:35	77.9	77.9	78.8	43	53.6	1	2	338	0.00	29.996 
13:40	78.6	78.6	79.4	45	55.5	2	6	270	0.00	29.995 
13:45	78.6	78.6	79.1	41	52.9	1	4	315	0.00	29.993 
13:50	78.1	78.1	78.8	41	52.5	1	3	0	0.00	29.993 
13:55	78.6	78.6	79.2	43	54.2	1	5	315	0.00	29.993 
14:00	79.2	79.2	79.5	41	53.4	1	6	315	0.00	29.991 
14:05	79.2	79.2	79.5	41	53.4	0	1	315	0.00	29.988 
14:10	79.0	79.0	79.5	43	54.6	0	3	315	0.00	29.988 
14:15	79.9	79.9	80.0	42	54.7	0	2	315	0.00	29.985 
14:20	80.3	80.3	80.1	39	53.1	1	4	315	0.00	29.985 
14:25	80.3	80.3	80.2	41	54.4	2	5	0	0.00	29.983 
14:30	80.1	80.1	80.3	43	55.6	1	3	315	0.00	29.981 
14:35	80.1	80.1	80.2	42	54.9	0	2	292	0.00	29.982 
14:40	79.9	79.9	80.4	46	57.2	1	2	22	0.00	29.979 
14:45	79.9	79.9	79.9	40	53.4	1	3	22	0.00	29.975 
14:50	80.3	80.3	80.1	40	53.8	1	3	315	0.00	29.975 
14:55	80.7	80.7	80.4	40	54.1	1	2	270	0.00	29.972 
15:00	79.6	79.6	79.6	39	52.4	1	2	315	0.00	29.976 
15:05	78.6	78.6	79.0	40	52.2	0	2	315	0.00	29.980 
15:10	77.9	77.9	78.8	43	53.6	1	7	315	0.00	29.981 
15:15	77.4	77.4	78.7	46	55.0	1	4	0	0.00	29.980 
15:20	77.0	77.0	78.4	44	53.4	1	3	315	0.00	29.980 
15:25	76.5	76.5	78.2	45	53.6	1	4	292	0.00	29.980 
15:30	76.7	76.7	78.4	48	55.5	0	2	338	0.00	29.975 
15:35	77.7	77.7	78.6	41	52.1	1	3	292	0.00	29.974 
15:40	78.5	78.5	78.9	39	51.5	1	6	90	0.00	29.973 
15:45	78.8	78.8	79.3	42	53.7	0	3	68	0.00	29.972 
15:50	79.2	79.2	79.4	40	52.8	1	4	315	0.00	29.972 
15:55	79.6	79.6	79.8	42	54.5	1	7	270	0.00	29.971 
16:00	79.8	79.8	80.0	43	55.3	1	5	338	0.00	29.971 
16:05	79.6	79.6	79.6	39	52.4	1	3	338	0.00	29.972 
16:10	79.6	79.6	79.5	38	51.7	1	3	270	0.00	29.972 
16:15	79.8	79.8	80.0	42	54.6	1	5	292	0.00	29.971 
16:20	79.9	79.9	79.9	41	54.1	1	3	292	0.00	29.971 
16:25	79.8	79.8	79.8	40	53.3	1	6	292	0.00	29.970 
16:30	79.9	79.9	79.8	39	52.7	1	5	292	0.00	29.971 
16:35	79.9	79.9	80.1	43	55.4	1	4	315	0.00	29.970 
16:40	79.6	79.6	79.5	38	51.7	1	3	270	0.00	29.970 
16:45	79.8	79.8	79.8	40	53.3	1	6	270	0.00	29.970 
16:50	79.8	79.8	79.6	37	51.2	1	3	315	0.00	29.970 
16:55	79.8	79.8	79.6	38	51.9	1	3	292	0.00	29.971 
17:00	79.6	79.6	79.4	36	50.3	1	3	270	0.00	29.970 
17:05	79.6	79.6	79.6	39	52.4	1	4	315	0.00	29.971 
17:10	79.4	79.4	79.2	35	49.3	1	3	338	0.00	29.972 
17:15	78.3	78.3	78.6	35	48.4	0	2	338	0.00	29.972 
17:20	78.5	78.5	78.8	37	50.0	1	2	292	0.00	29.974 
17:25	79.0	79.0	78.9	34	48.2	1	4	292	0.00	29.972 
17:30	79.0	79.0	79.0	36	49.7	0	3	315	0.00	29.972 
17:35	79.2	79.2	79.1	36	49.9	0	1	315	0.00	29.971 
17:40	79.2	79.2	79.3	38	51.4	1	3	315	0.00	29.972 
17:45	79.0	79.0	79.0	35	49.0	1	4	292	0.00	29.972 
17:50	78.6	78.6	78.8	36	49.4	1	4	292	0.00	29.972 
17:55	78.6	78.6	78.7	35	48.6	0	2	292	0.00	29.973 
18:00	78.6	78.6	78.9	38	50.8	0	2	315	0.00	29.972 
18:05	78.5	78.5	78.9	39	51.5	0	1	292	0.00	29.972 
18:10	78.5	78.5	78.9	38	50.8	1	2	292	0.00	29.971 
18:15	78.5	78.5	79.0	40	52.1	0	3	22	0.00	29.971 
18:20	78.3	78.3	78.8	39	51.3	0	3	292	0.00	29.972 
18:25	77.9	77.9	78.6	39	50.9	0	4	22	0.00	29.973 
18:30	77.7	77.7	78.6	40	51.4	0	1	22	0.00	29.974 
18:35	77.6	77.6	78.5	40	51.3	0	2	22	0.00	29.974 
18:40	77.4	77.4	78.5	41	51.8	0	1	338	0.00	29.974 
18:45	77.4	77.4	78.5	41	51.8	0	1	338	0.00	29.975 
18:50	77.2	77.2	78.3	40	51.0	0	2	338	0.00	29.975 
18:55	77.0	77.0	78.2	40	50.8	0	2	315	0.00	29.981 
19:00	76.8	76.8	78.2	41	51.3	0	1	315	0.00	29.981 
19:05	76.5	76.5	78.1	43	52.3	0	1	315	0.00	29.976 
19:10	76.3	76.3	78.0	43	52.1	0	0	---	0.00	29.977 
19:15	76.0	76.0	78.0	45	53.1	0	1	315	0.00	29.978 
19:20	75.6	75.6	77.8	45	52.7	0	0	---	0.00	29.975 
19:25	75.4	75.4	77.8	46	53.2	0	0	---	0.00	29.975 
19:30	75.1	75.1	77.7	46	52.9	0	0	---	0.00	29.979 
19:35	74.9	74.9	74.9	46	52.7	0	1	315	0.00	29.980 
19:40	74.6	74.6	74.6	47	53.0	0	0	---	0.00	29.981 
19:45	74.2	74.2	74.2	48	53.2	0	0	---	0.00	29.980 
19:50	73.9	73.9	73.9	49	53.5	0	0	---	0.00	29.975 
19:55	73.5	73.5	73.5	50	53.7	0	0	---	0.00	29.974 
20:00	73.0	73.0	73.0	52	54.3	0	0	---	0.00	29.974 
20:05	72.5	72.5	72.5	52	53.9	0	0	---	0.00	29.973 
20:10	72.1	72.1	72.1	53	54.0	0	0	---	0.00	29.974 
20:15	71.6	71.6	71.6	55	54.6	0	0	---	0.00	29.973 
20:20	71.3	71.3	71.3	55	54.3	0	0	---	0.00	29.972 
20:25	70.9	70.9	70.9	56	54.4	0	0	---	0.00	29.973 
20:30	70.8	70.8	70.8	56	54.3	0	0	---	0.00	29.973 
20:35	70.9	70.9	70.9	55	53.9	0	1	315	0.00	29.976 
20:40	71.1	71.1	71.1	56	54.6	0	1	315	0.00	29.976 
20:45	71.1	71.1	71.1	57	55.1	0	0	---	0.00	29.984 
20:50	70.9	70.9	70.9	58	55.4	0	0	---	0.00	29.986 
20:55	70.8	70.8	70.8	59	55.7	0	0	---	0.00	29.985 
21:00	70.8	70.8	70.8	62	57.1	0	1	315	0.00	29.985 
21:05	70.6	70.6	70.6	63	57.4	0	1	315	0.00	29.982 
21:10	70.3	70.3	70.3	64	57.5	0	0	---	0.00	29.983 
21:15	70.1	70.1	70.1	65	57.8	0	0	---	0.00	29.983 
21:20	69.9	69.9	69.9	67	58.4	0	0	---	0.00	29.981 
21:25	69.8	69.8	69.8	68	58.7	0	0	---	0.00	29.983 
21:30	69.4	69.4	69.4	69	58.8	0	0	---	0.00	29.984 
21:35	69.1	69.1	69.1	70	58.9	0	0	---	0.00	29.985 
21:40	68.9	68.9	68.9	71	59.1	0	0	---	0.00	29.985 
21:45	68.9	68.9	68.9	71	59.1	0	1	315	0.00	29.986 
21:50	68.9	68.9	68.9	71	59.1	0	1	315	0.00	29.986 
21:55	68.9	68.9	68.9	71	59.1	0	1	315	0.00	29.985 
22:00	68.9	68.9	68.9	71	59.1	0	1	315	0.00	29.984 
22:05	68.9	68.9	68.9	71	59.1	0	1	315	0.00	29.984 
22:10	68.8	68.8	68.8	71	59.0	0	0	---	0.00	29.984 
22:15	68.6	68.6	68.6	71	58.8	0	0	---	0.00	29.985 
22:20	68.4	68.4	68.4	71	58.6	0	1	315	0.00	29.985 
22:25	68.3	68.3	68.3	71	58.5	0	0	---	0.00	29.985 
22:30	68.1	68.1	68.1	72	58.7	0	0	---	0.00	29.985 
22:35	67.8	67.8	67.8	72	58.4	0	0	---	0.00	29.984 
22:40	67.6	67.6	67.6	72	58.2	0	0	---	0.00	29.983 
22:45	67.3	67.3	67.3	73	58.3	0	0	---	0.00	29.984 
22:50	67.3	67.3	67.3	73	58.3	0	0	---	0.00	29.985 
22:55	67.1	67.1	67.1	73	58.1	0	0	---	0.00	29.986 
23:00	66.8	66.8	66.8	74	58.2	0	0	---	0.00	29.985 
23:05	66.4	66.4	66.4	75	58.2	0	0	---	0.00	29.984 
23:10	66.3	66.3	66.3	76	58.5	0	0	---	0.00	29.984 
23:15	66.0	66.0	66.0	77	58.6	0	0	---	0.00	29.984 
23:20	66.0	66.0	66.0	78	58.9	0	0	---	0.00	29.984 
23:25	65.8	65.8	65.8	78	58.7	0	0	---	0.00	29.984 
23:30	65.6	65.6	65.6	79	58.9	0	0	---	0.00	29.985 
23:35	65.5	65.5	65.5	79	58.8	0	0	---	0.00	29.986 
23:40	65.2	65.2	65.2	80	58.9	0	0	---	0.00	29.986 
23:45	64.8	64.8	64.8	80	58.5	0	0	---	0.00	29.985 
23:50	64.8	64.8	64.8	80	58.5	0	0	---	0.00	29.985 
23:55	64.8	64.8	64.8	80	58.5	0	0	---	0.00	29.985 

CoCoRaHS
IN-AL-39
A2 Web Hosting
Creative Commons License
GoDaddy
Look for:

loaded 2017-10-16 20:10:19 • last modified 2010-11-18 10:43:29
Privacy PolicyDisclaimer
• wx.awcolley.com is powered by PmWiki v.2002016 •
• all content (unless otherwise noted) © 2017 A W Colley